Terminal Aerodrome Forecast
Issued by NWS Twin Cities, MN

Home | Current Version | Previous Version | Graphics & Text | Print | Product List | Glossary On
Versions: 1 2 3 4 5 6 7 8 9 10 11 12 13 14 15 16 17 18 19 20 21 22 23 24 25 26 27 28 29
250
FTUS43 KMPX 220846 AAA
TAFMSP
TAF AMD
KMSP 220846Z 2209/2312 00000KT P6SM VCSH BKN090
     FM221300 13003KT P6SM BKN050
     FM221800 30007KT P6SM BKN100
     FM230100 32010KT P6SM OVC020=

USA.gov is the U.S. government's official web portal to all federal, state and local government web resources and services.